sensor_id;sensor_type;location;lat;lon;timestamp;P1;durP1;ratioP1;P2;durP2;ratioP2
18387;SDS011;9320;50.256;19.026;2023-03-01T00:01:18;180.27;;;62.87;;
18387;SDS011;9320;50.256;19.026;2023-03-01T00:03:47;177.93;;;62.83;;
18387;SDS011;9320;50.256;19.026;2023-03-01T00:06:16;184.37;;;63.40;;
18387;SDS011;9320;50.256;19.026;2023-03-01T00:08:44;174.77;;;62.30;;
18387;SDS011;9320;50.256;19.026;2023-03-01T00:11:13;172.83;;;61.60;;
18387;SDS011;9320;50.256;19.026;2023-03-01T00:13:43;162.23;;;61.20;;
18387;SDS011;9320;50.256;19.026;2023-03-01T00:16:12;175.37;;;61.70;;
18387;SDS011;9320;50.256;19.026;2023-03-01T00:18:44;168.80;;;59.93;;
18387;SDS011;9320;50.256;19.026;2023-03-01T00:21:12;173.10;;;63.47;;
18387;SDS011;9320;50.256;19.026;2023-03-01T00:23:41;163.10;;;58.97;;
18387;SDS011;9320;50.256;19.026;2023-03-01T00:26:09;173.47;;;62.07;;
18387;SDS011;9320;50.256;19.026;2023-03-01T00:28:39;152.27;;;57.93;;
18387;SDS011;9320;50.256;19.026;2023-03-01T00:31:09;167.97;;;59.67;;
18387;SDS011;9320;50.256;19.026;2023-03-01T00:33:38;165.13;;;61.80;;
18387;SDS011;9320;50.256;19.026;2023-03-01T00:36:08;166.30;;;59.17;;
18387;SDS011;9320;50.256;19.026;2023-03-01T00:38:38;168.90;;;61.50;;
18387;SDS011;9320;50.256;19.026;2023-03-01T00:41:08;166.53;;;59.67;;
18387;SDS011;9320;50.256;19.026;2023-03-01T00:43:37;183.10;;;63.87;;
18387;SDS011;9320;50.256;19.026;2023-03-01T00:46:06;165.27;;;60.70;;
18387;SDS011;9320;50.256;19.026;2023-03-01T00:48:35;177.77;;;62.57;;
18387;SDS011;9320;50.256;19.026;2023-03-01T00:51:04;159.37;;;57.60;;
18387;SDS011;9320;50.256;19.026;2023-03-01T00:53:35;177.10;;;63.77;;
18387;SDS011;9320;50.256;19.026;2023-03-01T00:56:04;164.20;;;60.97;;
18387;SDS011;9320;50.256;19.026;2023-03-01T00:58:33;167.90;;;61.30;;
18387;SDS011;9320;50.256;19.026;2023-03-01T01:01:06;178.10;;;64.47;;
18387;SDS011;9320;50.256;19.026;2023-03-01T01:03:45;181.47;;;65.27;;
18387;SDS011;9320;50.256;19.026;2023-03-01T01:06:15;170.90;;;61.87;;
18387;SDS011;9320;50.256;19.026;2023-03-01T01:08:45;177.93;;;61.17;;
18387;SDS011;9320;50.256;19.026;2023-03-01T01:11:14;167.70;;;60.87;;
18387;SDS011;9320;50.256;19.026;2023-03-01T01:13:43;175.83;;;63.13;;
18387;SDS011;9320;50.256;19.026;2023-03-01T01:16:12;180.87;;;63.90;;
18387;SDS011;9320;50.256;19.026;2023-03-01T01:18:40;172.47;;;61.13;;
18387;SDS011;9320;50.256;19.026;2023-03-01T01:21:09;164.63;;;58.33;;
18387;SDS011;9320;50.256;19.026;2023-03-01T01:23:39;169.10;;;59.57;;
18387;SDS011;9320;50.256;19.026;2023-03-01T01:26:11;170.93;;;61.27;;
18387;SDS011;9320;50.256;19.026;2023-03-01T01:28:41;157.80;;;58.77;;
18387;SDS011;9320;50.256;19.026;2023-03-01T01:31:09;159.83;;;60.93;;
18387;SDS011;9320;50.256;19.026;2023-03-01T01:33:37;166.07;;;59.70;;
18387;SDS011;9320;50.256;19.026;2023-03-01T01:36:05;161.13;;;59.40;;
18387;SDS011;9320;50.256;19.026;2023-03-01T01:38:34;165.83;;;59.60;;
18387;SDS011;9320;50.256;19.026;2023-03-01T01:41:03;162.33;;;60.93;;
18387;SDS011;9320;50.256;19.026;2023-03-01T01:43:35;177.97;;;65.77;;
18387;SDS011;9320;50.256;19.026;2023-03-01T01:46:05;175.60;;;62.50;;
18387;SDS011;9320;50.256;19.026;2023-03-01T01:48:42;159.80;;;61.00;;
18387;SDS011;9320;50.256;19.026;2023-03-01T01:51:15;155.67;;;57.77;;
18387;SDS011;9320;50.256;19.026;2023-03-01T01:53:46;153.07;;;56.70;;
18387;SDS011;9320;50.256;19.026;2023-03-01T01:56:16;153.93;;;56.60;;
18387;SDS011;9320;50.256;19.026;2023-03-01T01:58:47;145.97;;;56.00;;
18387;SDS011;9320;50.256;19.026;2023-03-01T02:01:15;150.77;;;55.93;;
18387;SDS011;9320;50.256;19.026;2023-03-01T02:03:44;145.23;;;53.77;;
18387;SDS011;9320;50.256;19.026;2023-03-01T02:06:17;138.60;;;52.80;;
18387;SDS011;9320;50.256;19.026;2023-03-01T02:08:49;143.57;;;54.00;;
18387;SDS011;9320;50.256;19.026;2023-03-01T02:11:19;140.97;;;52.93;;
18387;SDS011;9320;50.256;19.026;2023-03-01T02:13:49;143.20;;;54.53;;
18387;SDS011;9320;50.256;19.026;2023-03-01T02:16:18;134.27;;;51.93;;
18387;SDS011;9320;50.256;19.026;2023-03-01T02:18:47;131.57;;;49.27;;
18387;SDS011;9320;50.256;19.026;2023-03-01T02:21:31;134.67;;;51.80;;
18387;SDS011;9320;50.256;19.026;2023-03-01T02:24:07;144.20;;;51.83;;
18387;SDS011;9320;50.256;19.026;2023-03-01T02:26:56;134.43;;;51.77;;
18387;SDS011;9320;50.256;19.026;2023-03-01T02:29:26;149.10;;;55.97;;
18387;SDS011;9320;50.256;19.026;2023-03-01T02:31:56;139.63;;;53.80;;
18387;SDS011;9320;50.256;19.026;2023-03-01T02:34:26;136.83;;;52.70;;
18387;SDS011;9320;50.256;19.026;2023-03-01T02:36:56;143.53;;;54.77;;
18387;SDS011;9320;50.256;19.026;2023-03-01T02:39:28;152.90;;;56.13;;
18387;SDS011;9320;50.256;19.026;2023-03-01T02:41:58;156.57;;;56.27;;
18387;SDS011;9320;50.256;19.026;2023-03-01T02:44:27;151.40;;;54.73;;
18387;SDS011;9320;50.256;19.026;2023-03-01T02:46:56;152.57;;;53.47;;
18387;SDS011;9320;50.256;19.026;2023-03-01T02:49:26;135.70;;;52.73;;
18387;SDS011;9320;50.256;19.026;2023-03-01T02:52:01;138.37;;;53.50;;
18387;SDS011;9320;50.256;19.026;2023-03-01T02:54:42;136.40;;;53.97;;
18387;SDS011;9320;50.256;19.026;2023-03-01T02:57:15;142.90;;;51.83;;
18387;SDS011;9320;50.256;19.026;2023-03-01T02:59:46;137.97;;;51.43;;
18387;SDS011;9320;50.256;19.026;2023-03-01T03:02:19;124.80;;;50.23;;
18387;SDS011;9320;50.256;19.026;2023-03-01T03:05:06;132.63;;;50.53;;
18387;SDS011;9320;50.256;19.026;2023-03-01T03:07:37;132.70;;;51.27;;
18387;SDS011;9320;50.256;19.026;2023-03-01T03:10:08;126.40;;;47.90;;
18387;SDS011;9320;50.256;19.026;2023-03-01T03:12:39;120.67;;;47.33;;
18387;SDS011;9320;50.256;19.026;2023-03-01T03:15:09;124.67;;;47.93;;
18387;SDS011;9320;50.256;19.026;2023-03-01T03:17:39;132.80;;;45.30;;
18387;SDS011;9320;50.256;19.026;2023-03-01T03:20:12;134.20;;;44.83;;
18387;SDS011;9320;50.256;19.026;2023-03-01T03:22:45;151.03;;;47.17;;
18387;SDS011;9320;50.256;19.026;2023-03-01T03:25:14;166.97;;;48.67;;
18387;SDS011;9320;50.256;19.026;2023-03-01T03:27:44;159.57;;;48.77;;
18387;SDS011;9320;50.256;19.026;2023-03-01T03:30:16;143.37;;;47.97;;
18387;SDS011;9320;50.256;19.026;2023-03-01T03:32:46;140.27;;;45.47;;
18387;SDS011;9320;50.256;19.026;2023-03-01T03:35:19;132.60;;;45.67;;
18387;SDS011;9320;50.256;19.026;2023-03-01T03:37:48;144.47;;;45.90;;
18387;SDS011;9320;50.256;19.026;2023-03-01T03:40:33;122.87;;;43.87;;
18387;SDS011;9320;50.256;19.026;2023-03-01T03:43:02;123.00;;;45.57;;
18387;SDS011;9320;50.256;19.026;2023-03-01T03:45:33;124.67;;;44.53;;
18387;SDS011;9320;50.256;19.026;2023-03-01T03:48:01;122.70;;;45.13;;
18387;SDS011;9320;50.256;19.026;2023-03-01T03:50:31;120.93;;;45.43;;
18387;SDS011;9320;50.256;19.026;2023-03-01T03:53:00;126.83;;;46.23;;
18387;SDS011;9320;50.256;19.026;2023-03-01T03:55:28;126.17;;;47.30;;
18387;SDS011;9320;50.256;19.026;2023-03-01T03:57:57;120.30;;;46.07;;
18387;SDS011;9320;50.256;19.026;2023-03-01T04:00:34;121.07;;;47.47;;
18387;SDS011;9320;50.256;19.026;2023-03-01T04:03:04;132.40;;;49.90;;
18387;SDS011;9320;50.256;19.026;2023-03-01T04:05:32;129.20;;;50.67;;
18387;SDS011;9320;50.256;19.026;2023-03-01T04:08:00;122.93;;;47.53;;
18387;SDS011;9320;50.256;19.026;2023-03-01T04:10:34;131.70;;;47.87;;
18387;SDS011;9320;50.256;19.026;2023-03-01T04:13:04;115.67;;;47.30;;
18387;SDS011;9320;50.256;19.026;2023-03-01T04:15:34;124.63;;;49.13;;
18387;SDS011;9320;50.256;19.026;2023-03-01T04:18:03;152.43;;;53.80;;
18387;SDS011;9320;50.256;19.026;2023-03-01T04:20:33;156.13;;;55.43;;
18387;SDS011;9320;50.256;19.026;2023-03-01T04:23:03;172.47;;;55.43;;
18387;SDS011;9320;50.256;19.026;2023-03-01T04:25:37;165.83;;;56.80;;
18387;SDS011;9320;50.256;19.026;2023-03-01T04:28:06;157.47;;;53.23;;
18387;SDS011;9320;50.256;19.026;2023-03-01T04:30:36;156.33;;;54.80;;
18387;SDS011;9320;50.256;19.026;2023-03-01T04:33:05;181.93;;;60.10;;
18387;SDS011;9320;50.256;19.026;2023-03-01T04:35:34;228.47;;;70.23;;
18387;SDS011;9320;50.256;19.026;2023-03-01T04:38:04;225.07;;;70.60;;
18387;SDS011;9320;50.256;19.026;2023-03-01T04:40:32;219.97;;;68.77;;
18387;SDS011;9320;50.256;19.026;2023-03-01T04:43:01;169.40;;;56.60;;
18387;SDS011;9320;50.256;19.026;2023-03-01T04:45:31;158.43;;;55.50;;
18387;SDS011;9320;50.256;19.026;2023-03-01T04:48:02;132.63;;;49.63;;
18387;SDS011;9320;50.256;19.026;2023-03-01T04:50:30;130.67;;;48.87;;
18387;SDS011;9320;50.256;19.026;2023-03-01T04:52:58;130.00;;;49.33;;
18387;SDS011;9320;50.256;19.026;2023-03-01T04:55:27;124.23;;;47.13;;
18387;SDS011;9320;50.256;19.026;2023-03-01T04:57:55;125.40;;;47.10;;
18387;SDS011;9320;50.256;19.026;2023-03-01T05:00:23;127.93;;;46.80;;
18387;SDS011;9320;50.256;19.026;2023-03-01T05:02:52;116.90;;;45.43;;
18387;SDS011;9320;50.256;19.026;2023-03-01T05:05:24;116.17;;;46.43;;
18387;SDS011;9320;50.256;19.026;2023-03-01T05:07:54;114.13;;;44.93;;
18387;SDS011;9320;50.256;19.026;2023-03-01T05:10:24;119.97;;;45.97;;
18387;SDS011;9320;50.256;19.026;2023-03-01T05:12:53;123.37;;;49.00;;
18387;SDS011;9320;50.256;19.026;2023-03-01T05:15:21;128.27;;;48.07;;
18387;SDS011;9320;50.256;19.026;2023-03-01T05:17:51;117.13;;;47.27;;
18387;SDS011;9320;50.256;19.026;2023-03-01T05:20:20;116.20;;;47.10;;
18387;SDS011;9320;50.256;19.026;2023-03-01T05:22:51;129.20;;;49.10;;
18387;SDS011;9320;50.256;19.026;2023-03-01T05:25:24;130.03;;;48.80;;
18387;SDS011;9320;50.256;19.026;2023-03-01T05:27:53;125.07;;;47.63;;
18387;SDS011;9320;50.256;19.026;2023-03-01T05:30:21;129.27;;;49.90;;
18387;SDS011;9320;50.256;19.026;2023-03-01T05:32:49;123.27;;;48.23;;
18387;SDS011;9320;50.256;19.026;2023-03-01T05:35:22;134.00;;;51.43;;
18387;SDS011;9320;50.256;19.026;2023-03-01T05:37:51;131.77;;;52.83;;
18387;SDS011;9320;50.256;19.026;2023-03-01T05:40:21;127.37;;;50.10;;
18387;SDS011;9320;50.256;19.026;2023-03-01T05:42:51;128.50;;;48.27;;
18387;SDS011;9320;50.256;19.026;2023-03-01T05:45:21;129.90;;;49.17;;
18387;SDS011;9320;50.256;19.026;2023-03-01T05:47:50;141.53;;;51.80;;
18387;SDS011;9320;50.256;19.026;2023-03-01T05:50:19;139.20;;;52.57;;
18387;SDS011;9320;50.256;19.026;2023-03-01T05:52:49;144.03;;;54.00;;
18387;SDS011;9320;50.256;19.026;2023-03-01T05:55:24;146.97;;;55.90;;
18387;SDS011;9320;50.256;19.026;2023-03-01T05:57:54;161.60;;;58.23;;
18387;SDS011;9320;50.256;19.026;2023-03-01T06:00:22;161.57;;;58.20;;
18387;SDS011;9320;50.256;19.026;2023-03-01T06:02:50;151.03;;;58.00;;
18387;SDS011;9320;50.256;19.026;2023-03-01T06:05:18;152.07;;;57.77;;
18387;SDS011;9320;50.256;19.026;2023-03-01T06:07:46;148.80;;;54.87;;
18387;SDS011;9320;50.256;19.026;2023-03-01T06:10:17;149.40;;;56.17;;
18387;SDS011;9320;50.256;19.026;2023-03-01T06:12:47;138.97;;;54.43;;
18387;SDS011;9320;50.256;19.026;2023-03-01T06:15:15;145.20;;;56.23;;
18387;SDS011;9320;50.256;19.026;2023-03-01T06:17:44;152.67;;;57.63;;
18387;SDS011;9320;50.256;19.026;2023-03-01T06:20:15;156.63;;;56.03;;
18387;SDS011;9320;50.256;19.026;2023-03-01T06:22:45;152.37;;;56.03;;
18387;SDS011;9320;50.256;19.026;2023-03-01T06:25:14;144.13;;;54.23;;
18387;SDS011;9320;50.256;19.026;2023-03-01T06:27:45;163.17;;;58.20;;
18387;SDS011;9320;50.256;19.026;2023-03-01T06:30:15;168.50;;;59.00;;
18387;SDS011;9320;50.256;19.026;2023-03-01T06:32:45;158.20;;;58.33;;
18387;SDS011;9320;50.256;19.026;2023-03-01T06:35:14;149.27;;;57.70;;
18387;SDS011;9320;50.256;19.026;2023-03-01T06:37:43;184.23;;;65.20;;
18387;SDS011;9320;50.256;19.026;2023-03-01T06:40:12;172.93;;;63.93;;
18387;SDS011;9320;50.256;19.026;2023-03-01T06:42:43;168.40;;;63.53;;
18387;SDS011;9320;50.256;19.026;2023-03-01T06:45:16;168.43;;;63.87;;
18387;SDS011;9320;50.256;19.026;2023-03-01T06:47:44;177.17;;;65.00;;
18387;SDS011;9320;50.256;19.026;2023-03-01T06:50:13;159.67;;;61.93;;
18387;SDS011;9320;50.256;19.026;2023-03-01T06:52:41;162.73;;;59.63;;
18387;SDS011;9320;50.256;19.026;2023-03-01T06:55:11;151.57;;;59.73;;
18387;SDS011;9320;50.256;19.026;2023-03-01T06:57:40;171.23;;;62.83;;
18387;SDS011;9320;50.256;19.026;2023-03-01T07:00:10;154.10;;;59.47;;
18387;SDS011;9320;50.256;19.026;2023-03-01T07:02:39;150.00;;;56.90;;
18387;SDS011;9320;50.256;19.026;2023-03-01T07:05:07;150.47;;;56.37;;
18387;SDS011;9320;50.256;19.026;2023-03-01T07:07:35;148.03;;;55.00;;
18387;SDS011;9320;50.256;19.026;2023-03-01T07:10:05;144.10;;;56.50;;
18387;SDS011;9320;50.256;19.026;2023-03-01T07:12:34;140.27;;;54.30;;
18387;SDS011;9320;50.256;19.026;2023-03-01T07:15:02;136.80;;;54.90;;
18387;SDS011;9320;50.256;19.026;2023-03-01T07:17:32;141.13;;;53.87;;
18387;SDS011;9320;50.256;19.026;2023-03-01T07:20:00;140.13;;;54.97;;
18387;SDS011;9320;50.256;19.026;2023-03-01T07:22:28;135.77;;;55.70;;
18387;SDS011;9320;50.256;19.026;2023-03-01T07:24:56;151.90;;;57.60;;
18387;SDS011;9320;50.256;19.026;2023-03-01T07:27:24;137.20;;;55.93;;
18387;SDS011;9320;50.256;19.026;2023-03-01T07:29:52;126.70;;;52.50;;
18387;SDS011;9320;50.256;19.026;2023-03-01T07:32:20;121.17;;;46.80;;
18387;SDS011;9320;50.256;19.026;2023-03-01T07:34:50;115.33;;;47.70;;
18387;SDS011;9320;50.256;19.026;2023-03-01T07:37:18;127.50;;;48.80;;
18387;SDS011;9320;50.256;19.026;2023-03-01T07:39:46;122.27;;;49.33;;
18387;SDS011;9320;50.256;19.026;2023-03-01T07:42:14;117.03;;;45.13;;
18387;SDS011;9320;50.256;19.026;2023-03-01T07:44:42;118.10;;;49.55;;
18387;SDS011;9320;50.256;19.026;2023-03-01T07:47:10;106.07;;;44.00;;
18387;SDS011;9320;50.256;19.026;2023-03-01T07:49:38;100.73;;;41.23;;
18387;SDS011;9320;50.256;19.026;2023-03-01T07:52:07;94.77;;;42.17;;
18387;SDS011;9320;50.256;19.026;2023-03-01T07:54:37;90.63;;;38.30;;
18387;SDS011;9320;50.256;19.026;2023-03-01T07:57:05;92.53;;;39.60;;
18387;SDS011;9320;50.256;19.026;2023-03-01T07:59:33;91.30;;;39.17;;
18387;SDS011;9320;50.256;19.026;2023-03-01T08:02:01;77.37;;;35.03;;
18387;SDS011;9320;50.256;19.026;2023-03-01T08:04:29;73.90;;;33.10;;
18387;SDS011;9320;50.256;19.026;2023-03-01T08:06:57;87.47;;;36.87;;
18387;SDS011;9320;50.256;19.026;2023-03-01T08:09:27;85.90;;;37.40;;
18387;SDS011;9320;50.256;19.026;2023-03-01T08:11:55;91.23;;;40.50;;
18387;SDS011;9320;50.256;19.026;2023-03-01T08:14:25;88.27;;;38.00;;
18387;SDS011;9320;50.256;19.026;2023-03-01T08:16:53;87.77;;;38.10;;
18387;SDS011;9320;50.256;19.026;2023-03-01T08:19:22;86.53;;;39.37;;
18387;SDS011;9320;50.256;19.026;2023-03-01T08:21:51;86.53;;;38.03;;
18387;SDS011;9320;50.256;19.026;2023-03-01T08:24:19;97.80;;;40.83;;
18387;SDS011;9320;50.256;19.026;2023-03-01T08:26:48;92.50;;;40.73;;
18387;SDS011;9320;50.256;19.026;2023-03-01T08:29:16;91.00;;;39.43;;
18387;SDS011;9320;50.256;19.026;2023-03-01T08:31:44;97.53;;;40.60;;
18387;SDS011;9320;50.256;19.026;2023-03-01T08:34:13;96.37;;;40.97;;
18387;SDS011;9320;50.256;19.026;2023-03-01T08:36:43;94.40;;;38.67;;
18387;SDS011;9320;50.256;19.026;2023-03-01T08:39:13;57.70;;;28.90;;
18387;SDS011;9320;50.256;19.026;2023-03-01T08:41:43;70.30;;;29.40;;
18387;SDS011;9320;50.256;19.026;2023-03-01T08:44:14;68.47;;;29.40;;
18387;SDS011;9320;50.256;19.026;2023-03-01T08:46:44;65.10;;;28.70;;
18387;SDS011;9320;50.256;19.026;2023-03-01T08:49:13;62.27;;;29.57;;
18387;SDS011;9320;50.256;19.026;2023-03-01T08:51:42;62.70;;;28.23;;
18387;SDS011;9320;50.256;19.026;2023-03-01T08:54:11;65.67;;;28.93;;
18387;SDS011;9320;50.256;19.026;2023-03-01T08:56:41;57.97;;;26.27;;
18387;SDS011;9320;50.256;19.026;2023-03-01T08:59:09;56.63;;;24.77;;
18387;SDS011;9320;50.256;19.026;2023-03-01T09:01:40;51.90;;;25.37;;
18387;SDS011;9320;50.256;19.026;2023-03-01T09:04:10;47.50;;;24.60;;
18387;SDS011;9320;50.256;19.026;2023-03-01T09:06:38;50.87;;;24.07;;
18387;SDS011;9320;50.256;19.026;2023-03-01T09:09:06;52.33;;;23.37;;
18387;SDS011;9320;50.256;19.026;2023-03-01T09:11:41;46.63;;;23.37;;
18387;SDS011;9320;50.256;19.026;2023-03-01T09:14:10;66.23;;;26.67;;
18387;SDS011;9320;50.256;19.026;2023-03-01T09:16:40;52.90;;;25.70;;
18387;SDS011;9320;50.256;19.026;2023-03-01T09:19:08;54.00;;;25.23;;
18387;SDS011;9320;50.256;19.026;2023-03-01T09:21:37;50.73;;;23.90;;
18387;SDS011;9320;50.256;19.026;2023-03-01T09:24:08;49.57;;;22.13;;
18387;SDS011;9320;50.256;19.026;2023-03-01T09:26:40;43.60;;;22.30;;
18387;SDS011;9320;50.256;19.026;2023-03-01T09:29:08;54.97;;;23.70;;
18387;SDS011;9320;50.256;19.026;2023-03-01T09:31:37;55.30;;;24.23;;
18387;SDS011;9320;50.256;19.026;2023-03-01T09:34:06;56.53;;;26.50;;
18387;SDS011;9320;50.256;19.026;2023-03-01T09:36:35;58.73;;;27.67;;
18387;SDS011;9320;50.256;19.026;2023-03-01T09:39:04;58.77;;;27.63;;
18387;SDS011;9320;50.256;19.026;2023-03-01T09:41:38;64.23;;;27.73;;
18387;SDS011;9320;50.256;19.026;2023-03-01T09:44:16;58.20;;;26.70;;
18387;SDS011;9320;50.256;19.026;2023-03-01T09:46:51;62.90;;;29.80;;
18387;SDS011;9320;50.256;19.026;2023-03-01T09:49:21;61.33;;;30.07;;
18387;SDS011;9320;50.256;19.026;2023-03-01T09:51:57;62.67;;;29.70;;
18387;SDS011;9320;50.256;19.026;2023-03-01T09:54:27;55.17;;;27.47;;
18387;SDS011;9320;50.256;19.026;2023-03-01T09:57:05;54.70;;;27.50;;
18387;SDS011;9320;50.256;19.026;2023-03-01T09:59:43;57.37;;;27.83;;
18387;SDS011;9320;50.256;19.026;2023-03-01T10:02:25;60.67;;;28.97;;
18387;SDS011;9320;50.256;19.026;2023-03-01T10:05:02;55.97;;;27.97;;
18387;SDS011;9320;50.256;19.026;2023-03-01T10:07:41;56.80;;;28.90;;
18387;SDS011;9320;50.256;19.026;2023-03-01T10:10:17;51.57;;;27.57;;
18387;SDS011;9320;50.256;19.026;2023-03-01T10:12:53;55.77;;;27.47;;
18387;SDS011;9320;50.256;19.026;2023-03-01T10:15:25;54.40;;;27.37;;
18387;SDS011;9320;50.256;19.026;2023-03-01T10:18:02;53.83;;;27.53;;
18387;SDS011;9320;50.256;19.026;2023-03-01T10:20:37;50.67;;;26.60;;
18387;SDS011;9320;50.256;19.026;2023-03-01T10:23:12;50.30;;;24.80;;
18387;SDS011;9320;50.256;19.026;2023-03-01T10:25:46;50.87;;;23.67;;
18387;SDS011;9320;50.256;19.026;2023-03-01T10:28:24;45.07;;;22.57;;
18387;SDS011;9320;50.256;19.026;2023-03-01T10:30:57;44.13;;;23.03;;
18387;SDS011;9320;50.256;19.026;2023-03-01T10:33:27;45.93;;;22.77;;
18387;SDS011;9320;50.256;19.026;2023-03-01T10:35:59;43.23;;;22.27;;
18387;SDS011;9320;50.256;19.026;2023-03-01T10:38:28;39.10;;;22.53;;
18387;SDS011;9320;50.256;19.026;2023-03-01T10:40:59;38.60;;;21.57;;
18387;SDS011;9320;50.256;19.026;2023-03-01T10:43:40;42.23;;;22.27;;
18387;SDS011;9320;50.256;19.026;2023-03-01T10:49:06;44.80;;;23.63;;
18387;SDS011;9320;50.256;19.026;2023-03-01T10:51:42;42.90;;;20.70;;
18387;SDS011;9320;50.256;19.026;2023-03-01T10:54:16;46.57;;;21.53;;
18387;SDS011;9320;50.256;19.026;2023-03-01T10:56:46;42.97;;;21.20;;
18387;SDS011;9320;50.256;19.026;2023-03-01T10:59:20;43.77;;;20.80;;
18387;SDS011;9320;50.256;19.026;2023-03-01T11:02:03;39.97;;;20.00;;
18387;SDS011;9320;50.256;19.026;2023-03-01T11:04:57;46.77;;;19.73;;
18387;SDS011;9320;50.256;19.026;2023-03-01T11:07:27;45.97;;;20.50;;
18387;SDS011;9320;50.256;19.026;2023-03-01T11:09:56;40.50;;;21.67;;
18387;SDS011;9320;50.256;19.026;2023-03-01T11:12:24;39.53;;;20.83;;
18387;SDS011;9320;50.256;19.026;2023-03-01T11:14:55;34.43;;;18.83;;
18387;SDS011;9320;50.256;19.026;2023-03-01T11:17:24;40.67;;;19.43;;
18387;SDS011;9320;50.256;19.026;2023-03-01T11:20:02;37.50;;;19.90;;
18387;SDS011;9320;50.256;19.026;2023-03-01T11:22:35;35.87;;;18.87;;
18387;SDS011;9320;50.256;19.026;2023-03-01T11:25:03;38.57;;;19.87;;
18387;SDS011;9320;50.256;19.026;2023-03-01T11:27:36;37.10;;;19.87;;
18387;SDS011;9320;50.256;19.026;2023-03-01T11:30:13;36.73;;;19.43;;
18387;SDS011;9320;50.256;19.026;2023-03-01T11:32:48;39.97;;;19.50;;
18387;SDS011;9320;50.256;19.026;2023-03-01T11:35:23;36.73;;;18.73;;
18387;SDS011;9320;50.256;19.026;2023-03-01T11:38:04;31.47;;;18.23;;
18387;SDS011;9320;50.256;19.026;2023-03-01T11:40:43;31.10;;;16.87;;
18387;SDS011;9320;50.256;19.026;2023-03-01T11:43:16;39.27;;;18.80;;
18387;SDS011;9320;50.256;19.026;2023-03-01T11:45:51;36.30;;;18.47;;
18387;SDS011;9320;50.256;19.026;2023-03-01T11:48:52;39.50;;;19.77;;
18387;SDS011;9320;50.256;19.026;2023-03-01T11:51:38;32.13;;;18.00;;
18387;SDS011;9320;50.256;19.026;2023-03-01T11:54:17;41.87;;;18.77;;
18387;SDS011;9320;50.256;19.026;2023-03-01T11:56:55;34.47;;;18.53;;
18387;SDS011;9320;50.256;19.026;2023-03-01T11:59:37;31.63;;;18.00;;
18387;SDS011;9320;50.256;19.026;2023-03-01T12:02:37;32.43;;;17.50;;
18387;SDS011;9320;50.256;19.026;2023-03-01T12:05:20;39.60;;;18.60;;
18387;SDS011;9320;50.256;19.026;2023-03-01T12:08:01;30.37;;;17.97;;
18387;SDS011;9320;50.256;19.026;2023-03-01T12:10:37;34.27;;;18.27;;
18387;SDS011;9320;50.256;19.026;2023-03-01T12:13:18;33.50;;;17.57;;
18387;SDS011;9320;50.256;19.026;2023-03-01T12:16:11;35.23;;;17.93;;
18387;SDS011;9320;50.256;19.026;2023-03-01T12:22:04;40.17;;;20.10;;
18387;SDS011;9320;50.256;19.026;2023-03-01T12:24:41;35.83;;;19.10;;
18387;SDS011;9320;50.256;19.026;2023-03-01T12:27:36;36.50;;;19.07;;
18387;SDS011;9320;50.256;19.026;2023-03-01T12:30:19;35.43;;;19.43;;
18387;SDS011;9320;50.256;19.026;2023-03-01T12:33:03;38.03;;;20.20;;
18387;SDS011;9320;50.256;19.026;2023-03-01T12:35:49;31.23;;;17.83;;
18387;SDS011;9320;50.256;19.026;2023-03-01T12:38:31;34.93;;;18.57;;
18387;SDS011;9320;50.256;19.026;2023-03-01T12:41:11;31.67;;;17.47;;
18387;SDS011;9320;50.256;19.026;2023-03-01T12:44:01;39.67;;;19.47;;
18387;SDS011;9320;50.256;19.026;2023-03-01T12:46:41;32.13;;;17.37;;
18387;SDS011;9320;50.256;19.026;2023-03-01T12:49:21;36.43;;;18.13;;
18387;SDS011;9320;50.256;19.026;2023-03-01T12:51:55;27.10;;;16.37;;
18387;SDS011;9320;50.256;19.026;2023-03-01T12:54:27;37.73;;;17.33;;
18387;SDS011;9320;50.256;19.026;2023-03-01T12:56:59;39.03;;;18.23;;
18387;SDS011;9320;50.256;19.026;2023-03-01T12:59:38;35.77;;;17.43;;
18387;SDS011;9320;50.256;19.026;2023-03-01T13:02:19;36.47;;;17.73;;
18387;SDS011;9320;50.256;19.026;2023-03-01T13:04:53;36.30;;;16.67;;
18387;SDS011;9320;50.256;19.026;2023-03-01T13:07:30;32.27;;;18.27;;
18387;SDS011;9320;50.256;19.026;2023-03-01T13:10:06;31.20;;;18.40;;
18387;SDS011;9320;50.256;19.026;2023-03-01T13:12:47;37.47;;;18.00;;
18387;SDS011;9320;50.256;19.026;2023-03-01T13:15:27;34.40;;;16.83;;
18387;SDS011;9320;50.256;19.026;2023-03-01T13:17:57;29.13;;;16.90;;
18387;SDS011;9320;50.256;19.026;2023-03-01T13:20:29;33.47;;;15.37;;
18387;SDS011;9320;50.256;19.026;2023-03-01T13:23:01;27.23;;;14.37;;
18387;SDS011;9320;50.256;19.026;2023-03-01T13:25:31;28.10;;;15.03;;
18387;SDS011;9320;50.256;19.026;2023-03-01T13:31:09;25.17;;;15.23;;
18387;SDS011;9320;50.256;19.026;2023-03-01T13:33:40;37.13;;;15.20;;
18387;SDS011;9320;50.256;19.026;2023-03-01T13:39:27;33.80;;;16.47;;
18387;SDS011;9320;50.256;19.026;2023-03-01T13:41:58;27.47;;;15.27;;
18387;SDS011;9320;50.256;19.026;2023-03-01T13:44:29;28.37;;;14.97;;
18387;SDS011;9320;50.256;19.026;2023-03-01T13:47:03;27.00;;;14.83;;
18387;SDS011;9320;50.256;19.026;2023-03-01T13:49:42;28.43;;;15.43;;
18387;SDS011;9320;50.256;19.026;2023-03-01T13:52:23;32.50;;;15.70;;
18387;SDS011;9320;50.256;19.026;2023-03-01T13:55:03;31.87;;;15.07;;
18387;SDS011;9320;50.256;19.026;2023-03-01T13:57:34;30.77;;;15.07;;
18387;SDS011;9320;50.256;19.026;2023-03-01T14:00:06;31.07;;;15.77;;
18387;SDS011;9320;50.256;19.026;2023-03-01T14:02:36;32.53;;;15.90;;
18387;SDS011;9320;50.256;19.026;2023-03-01T14:05:05;30.93;;;15.90;;
18387;SDS011;9320;50.256;19.026;2023-03-01T14:07:37;30.43;;;15.77;;
18387;SDS011;9320;50.256;19.026;2023-03-01T14:10:07;27.13;;;14.90;;
18387;SDS011;9320;50.256;19.026;2023-03-01T14:12:39;30.67;;;15.20;;
18387;SDS011;9320;50.256;19.026;2023-03-01T14:15:15;30.17;;;15.43;;
18387;SDS011;9320;50.256;19.026;2023-03-01T14:17:56;28.53;;;14.63;;
18387;SDS011;9320;50.256;19.026;2023-03-01T14:20:30;31.27;;;15.60;;
18387;SDS011;9320;50.256;19.026;2023-03-01T14:23:02;35.33;;;15.60;;
18387;SDS011;9320;50.256;19.026;2023-03-01T14:25:37;28.50;;;16.10;;
18387;SDS011;9320;50.256;19.026;2023-03-01T14:28:12;27.10;;;15.33;;
18387;SDS011;9320;50.256;19.026;2023-03-01T14:30:44;52.57;;;21.33;;
18387;SDS011;9320;50.256;19.026;2023-03-01T14:33:22;46.20;;;19.97;;
18387;SDS011;9320;50.256;19.026;2023-03-01T14:35:53;37.27;;;18.07;;
18387;SDS011;9320;50.256;19.026;2023-03-01T14:38:23;37.27;;;18.60;;
18387;SDS011;9320;50.256;19.026;2023-03-01T14:40:56;39.13;;;18.83;;
18387;SDS011;9320;50.256;19.026;2023-03-01T14:43:31;34.13;;;17.33;;
18387;SDS011;9320;50.256;19.026;2023-03-01T14:46:00;29.47;;;15.57;;
18387;SDS011;9320;50.256;19.026;2023-03-01T14:48:30;30.30;;;15.50;;
18387;SDS011;9320;50.256;19.026;2023-03-01T14:50:59;29.10;;;15.17;;
18387;SDS011;9320;50.256;19.026;2023-03-01T14:53:28;30.10;;;14.73;;